Time;durP1;ratioP1;P1;durP2;ratioP2;P2;SDS_P1;SDS_P2;PMS_P1;PMS_P2;Temp;Humidity;BMP_temperature;BMP_pressure;BME280_temperature;BME280_humidity;BME280_pressure;Samples;Min_cycle;Max_cycle;Signal;HPM_P1;HPM_P2
2023/08/26 00:00:52;;;;;;;13.27;9.57;;;21.90;1.00;;;;;;5007451;28;20577;-76
2023/08/26 00:03:18;;;;;;;12.63;9.20;;;22.00;1.00;;;;;;5009848;28;20186;-78
2023/08/26 00:05:43;;;;;;;18.17;10.33;;;22.00;1.00;;;;;;5008985;28;20312;-77
2023/08/26 00:08:09;;;;;;;12.83;9.40;;;22.00;1.00;;;;;;5010241;28;20184;-76
2023/08/26 00:10:35;;;;;;;13.10;8.87;;;22.00;1.00;;;;;;5009984;28;20178;-75
2023/08/26 00:13:00;;;;;;;12.27;10.07;;;22.00;1.00;;;;;;5009276;28;20253;-78
2023/08/26 00:15:26;;;;;;;15.47;11.03;;;22.10;1.00;;;;;;5009556;28;20181;-77
2023/08/26 00:17:51;;;;;;;11.37;9.57;;;22.10;1.00;;;;;;5009620;28;20201;-77
2023/08/26 00:20:21;;;;;;;13.53;9.80;;;22.20;1.00;;;;;;5009118;28;20189;-78
2023/08/26 00:22:46;;;;;;;15.70;9.90;;;22.00;1.00;;;;;;5008505;28;20207;-77
2023/08/26 00:25:12;;;;;;;15.97;10.50;;;21.80;1.00;;;;;;5009447;28;20465;-78
2023/08/26 00:27:37;;;;;;;15.83;10.60;;;21.60;1.00;;;;;;5009764;28;20238;-76
2023/08/26 00:30:03;;;;;;;14.90;11.07;;;21.60;1.00;;;;;;5008409;28;20184;-77
2023/08/26 00:32:29;;;;;;;17.73;11.63;;;21.60;1.00;;;;;;5008283;28;20272;-78
2023/08/26 00:34:54;;;;;;;16.37;11.80;;;21.50;1.00;;;;;;5008582;28;22240;-77
2023/08/26 00:37:20;;;;;;;18.03;13.03;;;21.80;1.00;;;;;;5010849;28;20235;-77
2023/08/26 00:39:45;;;;;;;13.57;12.13;;;21.50;1.00;;;;;;5010507;28;20239;-78
2023/08/26 00:42:11;;;;;;;28.37;13.30;;;21.50;1.00;;;;;;5009810;28;20182;-78
2023/08/26 00:44:36;;;;;;;16.00;12.30;;;21.50;1.00;;;;;;5006463;28;20198;-75
2023/08/26 00:47:02;;;;;;;17.00;11.93;;;21.60;1.00;;;;;;5009232;28;20206;-78
2023/08/26 00:49:28;;;;;;;15.90;11.23;;;21.60;1.00;;;;;;5007321;28;20190;-78
2023/08/26 00:51:55;;;;;;;15.60;11.90;;;21.50;1.00;;;;;;5007847;28;20186;-78
2023/08/26 00:54:21;;;;;;;18.20;12.93;;;21.50;1.00;;;;;;5006799;28;20178;-78
2023/08/26 00:56:46;;;;;;;16.63;11.53;;;21.50;1.00;;;;;;5008690;28;20463;-79
2023/08/26 00:59:12;;;;;;;24.20;11.83;;;21.50;1.00;;;;;;5006076;28;20722;-78
2023/08/26 01:01:41;;;;;;;16.50;12.57;;;21.50;1.00;;;;;;5006553;28;20196;-77
2023/08/26 01:04:06;;;;;;;23.70;12.73;;;21.50;1.00;;;;;;5004546;28;20229;-78
2023/08/26 01:06:32;;;;;;;14.27;11.50;;;21.50;1.00;;;;;;5008695;28;20577;-78
2023/08/26 01:08:57;;;;;;;14.43;11.00;;;21.50;1.00;;;;;;5007992;28;20182;-77
2023/08/26 01:11:35;;;;;;;16.90;11.63;;;21.50;1.00;;;;;;5007969;28;20186;-78
2023/08/26 01:14:10;;;;;;;19.60;11.20;;;21.50;1.00;;;;;;5007918;28;20177;-78
2023/08/26 01:16:37;;;;;;;20.47;11.63;;;21.50;1.00;;;;;;5008714;28;20464;-78
2023/08/26 01:19:08;;;;;;;17.63;11.67;;;21.40;1.00;;;;;;5007845;28;20444;-78
2023/08/26 01:21:39;;;;;;;20.63;11.07;;;21.40;1.00;;;;;;5005461;28;20528;-79
2023/08/26 01:24:06;;;;;;;15.77;11.60;;;21.40;1.00;;;;;;5005737;28;20486;-79
2023/08/26 01:26:31;;;;;;;14.63;11.13;;;21.40;1.00;;;;;;5008447;28;20457;-77
2023/08/26 01:28:57;;;;;;;18.00;11.20;;;21.40;1.00;;;;;;5007605;28;20443;-78
2023/08/26 01:31:28;;;;;;;14.67;11.07;;;21.40;1.00;;;;;;5007249;28;20248;-78
2023/08/26 01:34:02;;;;;;;15.40;11.00;;;21.40;1.00;;;;;;5008094;28;20445;-77
2023/08/26 01:36:34;;;;;;;14.07;11.00;;;21.40;1.00;;;;;;5008333;28;21130;-79
2023/08/26 01:39:00;;;;;;;17.40;11.00;;;21.40;1.00;;;;;;5008015;28;20544;-77
2023/08/26 01:41:26;;;;;;;15.80;11.70;;;21.40;1.00;;;;;;5007191;28;21006;-76
2023/08/26 01:43:53;;;;;;;16.77;11.47;;;21.40;1.00;;;;;;5006875;28;20220;-79
2023/08/26 01:46:18;;;;;;;18.30;12.10;;;21.40;1.00;;;;;;5006494;28;20475;-79
2023/08/26 01:48:44;;;;;;;19.70;12.37;;;21.40;1.00;;;;;;5005897;28;20882;-78
2023/08/26 01:51:11;;;;;;;15.03;11.03;;;21.50;1.00;;;;;;5007941;28;20182;-79
2023/08/26 01:53:37;;;;;;;16.63;11.63;;;21.50;1.00;;;;;;5006053;28;20217;-79
2023/08/26 01:56:03;;;;;;;15.00;10.17;;;21.40;1.00;;;;;;5005831;28;20493;-78
2023/08/26 01:58:28;;;;;;;15.00;9.80;;;21.40;1.00;;;;;;5006396;28;20244;-78
2023/08/26 02:00:54;;;;;;;17.33;9.93;;;21.40;1.00;;;;;;5007327;28;20182;-79
2023/08/26 02:03:19;;;;;;;12.50;8.97;;;21.50;1.00;;;;;;5007962;28;20277;-79
2023/08/26 02:05:45;;;;;;;11.50;9.13;;;21.30;1.00;;;;;;5005633;28;20206;-78
2023/08/26 02:08:10;;;;;;;11.90;9.40;;;21.20;1.00;;;;;;5007389;28;20189;-78
2023/08/26 02:10:36;;;;;;;15.60;9.70;;;21.20;1.00;;;;;;5008377;28;20178;-79
2023/08/26 02:13:01;;;;;;;13.33;9.30;;;21.20;1.00;;;;;;5007007;28;20257;-78
2023/08/26 02:15:26;;;;;;;14.37;9.60;;;21.30;1.00;;;;;;5008079;28;20208;-79
2023/08/26 02:17:52;;;;;;;12.47;9.00;;;21.30;1.00;;;;;;5006616;28;20181;-79
2023/08/26 02:20:18;;;;;;;14.43;9.70;;;21.40;1.00;;;;;;5005626;28;20178;-80
2023/08/26 02:22:43;;;;;;;14.70;9.40;;;21.40;1.00;;;;;;5007986;28;20193;-79
2023/08/26 02:25:09;;;;;;;21.53;9.70;;;21.40;1.00;;;;;;5006363;28;20205;-78
2023/08/26 02:27:34;;;;;;;17.80;9.40;;;21.30;1.00;;;;;;5007182;28;20289;-79
2023/08/26 02:30:00;;;;;;;11.93;8.70;;;21.30;1.00;;;;;;5012538;28;20181;-78
2023/08/26 02:32:25;;;;;;;18.63;9.67;;;21.30;1.00;;;;;;5012155;28;20279;-77
2023/08/26 02:34:51;;;;;;;13.90;9.30;;;21.30;1.00;;;;;;5011069;28;20197;-78
2023/08/26 02:37:16;;;;;;;11.87;8.90;;;21.30;1.00;;;;;;5012079;28;20201;-78
2023/08/26 02:39:42;;;;;;;14.13;9.90;;;21.40;1.00;;;;;;5011478;28;20182;-78
2023/08/26 02:42:07;;;;;;;12.70;9.53;;;21.30;1.00;;;;;;5011626;28;20277;-78
2023/08/26 02:44:33;;;;;;;16.33;9.70;;;21.40;1.00;;;;;;5011508;28;20264;-79
2023/08/26 02:46:59;;;;;;;14.30;9.17;;;21.40;1.00;;;;;;5011212;28;20205;-79
2023/08/26 02:49:25;;;;;;;15.10;9.03;;;21.40;1.00;;;;;;5010741;28;20182;-80
2023/08/26 02:51:51;;;;;;;12.73;8.80;;;21.40;1.00;;;;;;5010773;28;20182;-80
2023/08/26 02:54:16;;;;;;;17.03;9.23;;;21.40;1.00;;;;;;5009122;28;20514;-78
2023/08/26 02:56:42;;;;;;;17.47;9.07;;;21.40;1.00;;;;;;5011828;28;20293;-79
2023/08/26 02:59:07;;;;;;;12.47;9.00;;;21.40;1.00;;;;;;5011481;28;20209;-78
2023/08/26 03:01:33;;;;;;;16.47;9.77;;;21.40;1.00;;;;;;5020723;28;20182;-77
2023/08/26 03:03:58;;;;;;;19.63;9.90;;;21.50;1.00;;;;;;5021312;28;20557;-79
2023/08/26 03:06:24;;;;;;;13.83;8.90;;;21.50;1.00;;;;;;5017920;28;20225;-79
2023/08/26 03:08:50;;;;;;;12.93;9.10;;;;;;;;;;5020461;28;20194;-79
2023/08/26 03:11:16;;;;;;;14.07;8.80;;;21.50;1.00;;;;;;5018983;28;20185;-79
2023/08/26 03:13:42;;;;;;;14.77;9.40;;;;;;;;;;5019639;28;20232;-76
2023/08/26 03:16:10;;;;;;;13.87;8.87;;;21.50;1.00;;;;;;5021058;28;20274;-78
2023/08/26 03:18:36;;;;;;;12.80;9.30;;;21.40;1.00;;;;;;5021942;28;20190;-75
2023/08/26 03:21:03;;;;;;;17.50;9.63;;;21.40;1.00;;;;;;5009211;28;20440;-77
2023/08/26 03:23:28;;;;;;;14.23;9.50;;;21.40;1.00;;;;;;5014743;28;20498;-75
2023/08/26 03:25:55;;;;;;;15.27;9.50;;;21.40;1.00;;;;;;5018036;28;20506;-79
2023/08/26 03:28:20;;;;;;;12.53;9.97;;;21.30;1.00;;;;;;5017684;28;20186;-76
2023/08/26 03:30:46;;;;;;;14.53;9.33;;;21.30;1.00;;;;;;5020582;28;20447;-76
2023/08/26 03:33:12;;;;;;;20.00;9.90;;;21.40;1.00;;;;;;5018675;28;22448;-77
2023/08/26 03:35:40;;;;;;;13.97;9.70;;;21.40;1.00;;;;;;5016997;28;20194;-77
2023/08/26 03:38:06;;;;;;;12.33;9.10;;;21.40;1.00;;;;;;5017672;28;20210;-78
2023/08/26 03:40:32;;;;;;;20.30;9.93;;;21.40;1.00;;;;;;5019239;28;20448;-77
2023/08/26 03:42:57;;;;;;;13.43;9.73;;;21.40;1.00;;;;;;5019705;28;20436;-76
2023/08/26 03:45:25;;;;;;;16.40;9.53;;;;;;;;;;5018242;28;20217;-76
2023/08/26 03:47:51;;;;;;;14.97;10.03;;;21.30;1.00;;;;;;5015289;28;20221;-77
2023/08/26 03:50:17;;;;;;;13.17;9.40;;;21.30;1.00;;;;;;5019783;28;20799;-79
2023/08/26 03:52:43;;;;;;;15.83;9.33;;;;;;;;;;5018335;28;20190;-76
2023/08/26 03:55:09;;;;;;;20.53;10.40;;;21.30;1.00;;;;;;5017556;28;20198;-78
2023/08/26 03:57:34;;;;;;;14.63;9.53;;;21.30;1.00;;;;;;5015526;28;20285;-77
2023/08/26 04:00:00;;;;;;;17.50;10.27;;;21.20;1.00;;;;;;5009845;28;20896;-77
2023/08/26 04:02:25;;;;;;;12.67;9.53;;;21.10;1.00;;;;;;5010288;28;20194;-77
2023/08/26 04:04:51;;;;;;;16.53;10.00;;;21.10;1.00;;;;;;5007856;28;20210;-77
2023/08/26 04:07:16;;;;;;;19.23;9.80;;;21.00;1.00;;;;;;5009670;28;20259;-77
2023/08/26 04:09:42;;;;;;;16.73;10.33;;;21.10;1.00;;;;;;5006064;28;20192;-76
2023/08/26 04:12:08;;;;;;;15.07;9.77;;;20.90;1.00;;;;;;5013982;28;20209;-76
2023/08/26 04:14:34;;;;;;;23.37;9.83;;;20.90;1.00;;;;;;5016848;28;20508;-76
2023/08/26 04:17:03;;;;;;;15.67;10.53;;;20.90;1.00;;;;;;5019006;28;20202;-77
2023/08/26 04:19:30;;;;;;;16.30;10.40;;;20.80;1.00;;;;;;5004137;28;20580;-75
2023/08/26 04:21:59;;;;;;;16.83;11.07;;;20.80;1.00;;;;;;5011579;28;20858;-76
2023/08/26 04:24:24;;;;;;;17.67;10.37;;;20.70;1.00;;;;;;5008194;28;20563;-76
2023/08/26 04:26:49;;;;;;;24.37;10.30;;;20.70;1.00;;;;;;5011355;28;20465;-76
2023/08/26 04:29:15;;;;;;;17.80;10.20;;;20.80;1.00;;;;;;5009211;28;20237;-76
2023/08/26 04:31:40;;;;;;;14.83;10.00;;;20.80;1.00;;;;;;5010170;28;20633;-76
2023/08/26 04:34:06;;;;;;;18.23;10.00;;;20.80;1.00;;;;;;5009118;28;20277;-76
2023/08/26 04:36:32;;;;;;;19.03;10.10;;;;;;;;;;5008626;28;20209;-77
2023/08/26 04:38:57;;;;;;;19.40;9.83;;;20.80;1.00;;;;;;5010070;28;20194;-77
2023/08/26 04:41:23;;;;;;;17.37;10.13;;;20.80;1.00;;;;;;5010386;28;20589;-76
2023/08/26 04:43:49;;;;;;;13.10;9.70;;;20.80;1.00;;;;;;5009165;28;20214;-76
2023/08/26 04:46:15;;;;;;;15.70;9.50;;;20.80;1.00;;;;;;5009991;28;20803;-75
2023/08/26 04:48:40;;;;;;;18.20;9.20;;;20.80;1.00;;;;;;5011216;28;20178;-77
2023/08/26 04:51:06;;;;;;;14.07;9.40;;;20.70;1.00;;;;;;5011386;28;20190;-77
2023/08/26 04:53:31;;;;;;;13.40;9.10;;;20.70;1.00;;;;;;5010872;28;20284;-76
2023/08/26 04:55:57;;;;;;;18.77;9.43;;;20.70;1.00;;;;;;5011812;28;20236;-76
2023/08/26 04:58:22;;;;;;;15.50;9.80;;;20.50;1.00;;;;;;5010927;28;20759;-76
2023/08/26 05:00:48;;;;;;;16.90;9.20;;;20.60;1.00;;;;;;5008415;28;20191;-76
2023/08/26 05:03:13;;;;;;;14.80;9.07;;;20.60;1.00;;;;;;5009425;28;20569;-75
2023/08/26 05:05:42;;;;;;;14.27;8.87;;;20.60;1.00;;;;;;5008854;28;20225;-74
2023/08/26 05:08:09;;;;;;;12.40;8.20;;;20.60;1.00;;;;;;5009891;28;20676;-76
2023/08/26 05:10:38;;;;;;;12.23;8.47;;;20.50;1.00;;;;;;5009959;28;20441;-76
2023/08/26 05:13:04;;;;;;;12.03;8.03;;;20.90;1.00;;;;;;5008131;28;20465;-75
2023/08/26 05:15:29;;;;;;;15.43;8.90;;;20.50;1.00;;;;;;5006390;28;20452;-75
2023/08/26 05:17:55;;;;;;;15.97;8.67;;;20.40;1.00;;;;;;5008111;28;20193;-76
2023/08/26 05:20:21;;;;;;;13.43;7.97;;;20.40;1.00;;;;;;5009036;28;20664;-75
2023/08/26 05:22:46;;;;;;;12.20;7.87;;;20.50;1.00;;;;;;5008411;28;20660;-76
2023/08/26 05:25:12;;;;;;;13.03;8.40;;;20.60;1.00;;;;;;5008832;28;20216;-75
2023/08/26 05:27:37;;;;;;;16.37;7.97;;;20.60;1.00;;;;;;5009052;28;20561;-74
2023/08/26 05:30:04;;;;;;;9.93;7.63;;;20.80;1.00;;;;;;5008760;28;20707;-76
2023/08/26 05:32:29;;;;;;;11.13;7.33;;;20.90;1.00;;;;;;5010271;28;20182;-75
2023/08/26 05:34:55;;;;;;;13.20;7.30;;;21.00;1.00;;;;;;5007673;28;20459;-75
2023/08/26 05:37:20;;;;;;;13.03;7.60;;;21.00;1.00;;;;;;5004096;28;20704;-77
2023/08/26 05:39:46;;;;;;;11.30;6.43;;;;;;;;;;5004476;28;20190;-75
2023/08/26 05:42:12;;;;;;;11.50;7.30;;;21.00;1.00;;;;;;5007566;28;20269;-75
2023/08/26 05:44:37;;;;;;;11.30;6.83;;;21.00;1.00;;;;;;5005939;28;20205;-75
2023/08/26 05:47:03;;;;;;;12.30;6.30;;;21.10;1.00;;;;;;5002663;28;20620;-76
2023/08/26 05:49:29;;;;;;;10.33;5.80;;;21.00;1.00;;;;;;5006290;28;20756;-75
2023/08/26 05:51:54;;;;;;;12.57;6.40;;;21.00;1.00;;;;;;5004474;28;20186;-75
2023/08/26 05:54:20;;;;;;;10.13;6.43;;;21.00;1.00;;;;;;5007724;28;20190;-76
2023/08/26 05:56:46;;;;;;;12.63;5.80;;;21.00;1.00;;;;;;5008767;28;20233;-75
2023/08/26 05:59:11;;;;;;;12.50;6.07;;;21.00;1.00;;;;;;5000635;28;20446;-75
2023/08/26 06:01:37;;;;;;;9.30;5.63;;;21.10;1.00;;;;;;5009211;28;20185;-77
2023/08/26 06:04:03;;;;;;;9.80;5.47;;;;;;;;;;5002324;28;20285;-75
2023/08/26 06:06:29;;;;;;;9.10;5.07;;;21.50;1.00;;;;;;5008428;28;20193;-76
2023/08/26 06:08:55;;;;;;;7.30;5.27;;;21.70;1.00;;;;;;5007553;28;20449;-75
2023/08/26 06:11:20;;;;;;;9.53;5.20;;;21.80;1.00;;;;;;5009882;28;20182;-75
2023/08/26 06:13:46;;;;;;;9.93;4.93;;;21.80;1.00;;;;;;5010557;28;20375;-74
2023/08/26 06:16:11;;;;;;;9.80;4.97;;;21.90;1.00;;;;;;5009040;28;20700;-75
2023/08/26 06:18:36;;;;;;;14.80;5.03;;;22.00;1.00;;;;;;5008753;28;20182;-76
2023/08/26 06:21:02;;;;;;;7.93;4.60;;;22.20;1.00;;;;;;5006861;28;20204;-75
2023/08/26 06:23:29;;;;;;;7.53;4.70;;;22.50;1.00;;;;;;5005949;28;20224;-75
2023/08/26 06:25:56;;;;;;;8.00;4.83;;;22.40;1.00;;;;;;5008066;28;20206;-74
2023/08/26 06:28:23;;;;;;;9.13;4.50;;;22.40;1.00;;;;;;5008545;28;20421;-75
2023/08/26 06:30:49;;;;;;;7.67;4.33;;;22.20;1.00;;;;;;5010521;28;20936;-75
2023/08/26 06:33:15;;;;;;;6.70;4.27;;;22.20;1.00;;;;;;5009323;28;20417;-74
2023/08/26 06:35:45;;;;;;;9.60;4.23;;;22.20;1.00;;;;;;5010035;28;20178;-74
2023/08/26 06:38:11;;;;;;;5.73;3.67;;;22.20;1.00;;;;;;5009810;28;20181;-75
2023/08/26 06:40:36;;;;;;;7.33;3.17;;;22.20;1.00;;;;;;5008868;28;20969;-74
2023/08/26 06:43:03;;;;;;;8.10;3.70;;;22.00;1.00;;;;;;5007429;28;20316;-75
2023/08/26 06:45:29;;;;;;;8.43;3.40;;;;;;;;;;5006830;28;20201;-74
2023/08/26 06:47:55;;;;;;;9.27;3.50;;;21.80;1.00;;;;;;5013526;28;20423;-75
2023/08/26 06:50:21;;;;;;;5.37;3.10;;;21.60;1.00;;;;;;5011631;28;20186;-75
2023/08/26 06:52:47;;;;;;;6.20;3.30;;;21.60;1.00;;;;;;5005015;28;20660;-76
2023/08/26 06:55:13;;;;;;;5.87;3.03;;;21.90;1.00;;;;;;5009241;28;20177;-75
2023/08/26 06:57:38;;;;;;;9.93;3.53;;;21.80;1.00;;;;;;5007712;28;20531;-73
2023/08/26 07:00:05;;;;;;;7.20;3.30;;;;;;;;;;5007541;28;20193;-75
2023/08/26 07:02:30;;;;;;;5.90;2.83;;;22.10;1.00;;;;;;5004150;28;20790;-75
2023/08/26 07:04:56;;;;;;;8.13;3.57;;;22.30;1.00;;;;;;5006792;28;20464;-73
2023/08/26 07:07:21;;;;;;;7.43;3.20;;;22.60;1.00;;;;;;5008599;28;20198;-74
2023/08/26 07:09:47;;;;;;;7.23;3.10;;;22.70;1.00;;;;;;5006736;28;20186;-76
2023/08/26 07:12:14;;;;;;;6.47;4.70;;;22.70;1.00;;;;;;5006353;28;20182;-76
2023/08/26 07:14:40;;;;;;;4.80;3.30;;;22.80;1.00;;;;;;5004941;28;20440;-74
2023/08/26 07:17:05;;;;;;;5.90;3.37;;;22.90;1.00;;;;;;5010072;28;20452;-75
2023/08/26 07:19:31;;;;;;;5.40;3.17;;;23.10;1.00;;;;;;5011759;28;20221;-77
2023/08/26 07:21:56;;;;;;;7.87;3.00;;;23.40;1.00;;;;;;5012995;28;20280;-74
2023/08/26 07:24:22;;;;;;;5.00;2.43;;;23.60;1.00;;;;;;5013276;28;20205;-74
2023/08/26 07:26:47;;;;;;;5.50;2.67;;;23.60;1.00;;;;;;5014400;28;20213;-75
2023/08/26 07:29:13;;;;;;;4.93;2.70;;;23.50;1.00;;;;;;5013998;28;20444;-75
2023/08/26 07:31:39;;;;;;;6.30;2.53;;;;;;;;;;5013574;28;20178;-75
2023/08/26 07:34:04;;;;;;;8.20;2.70;;;23.90;1.00;;;;;;5014029;28;20221;-75
2023/08/26 07:36:30;;;;;;;4.33;2.40;;;24.40;1.00;;;;;;5013904;28;20480;-74
2023/08/26 07:38:55;;;;;;;7.90;2.57;;;24.90;1.00;;;;;;5013577;28;20668;-74
2023/08/26 07:41:21;;;;;;;8.93;2.60;;;25.90;1.00;;;;;;5013708;28;20193;-74
2023/08/26 07:43:46;;;;;;;5.73;2.73;;;26.20;1.00;;;;;;5013687;28;20201;-74
2023/08/26 07:46:12;;;;;;;8.87;2.70;;;26.30;1.00;;;;;;5014186;28;20300;-76
2023/08/26 07:48:38;;;;;;;5.33;2.60;;;25.50;1.00;;;;;;5013341;28;20182;-76
2023/08/26 07:51:04;;;;;;;5.10;2.67;;;;;;;;;;5013904;28;20524;-75
2023/08/26 07:53:30;;;;;;;4.67;2.43;;;24.30;1.00;;;;;;5014119;28;20364;-75
2023/08/26 07:55:55;;;;;;;6.00;2.63;;;24.20;1.00;;;;;;5014221;28;20252;-76
2023/08/26 07:58:21;;;;;;;4.30;2.53;;;24.20;1.00;;;;;;5013767;28;20241;-74
2023/08/26 08:00:46;;;;;;;6.63;2.63;;;24.80;1.00;;;;;;5004844;28;20552;-72
2023/08/26 08:03:12;;;;;;;3.47;2.17;;;24.40;1.00;;;;;;5012333;28;20186;-71
2023/08/26 08:05:37;;;;;;;7.60;2.70;;;24.00;1.00;;;;;;5010406;28;20696;-71
2023/08/26 08:08:03;;;;;;;3.90;2.30;;;24.00;1.00;;;;;;5012383;28;20424;-71
2023/08/26 08:10:28;;;;;;;5.17;2.60;;;23.50;1.00;;;;;;5011770;28;20272;-71
2023/08/26 08:12:54;;;;;;;3.93;2.17;;;23.30;1.00;;;;;;5012191;28;20691;-71
2023/08/26 08:15:19;;;;;;;6.13;2.57;;;23.10;1.00;;;;;;5011430;28;20197;-71
2023/08/26 08:17:45;;;;;;;4.47;2.43;;;23.10;1.00;;;;;;5011961;28;20214;-71
2023/08/26 08:20:11;;;;;;;4.67;2.30;;;23.20;1.00;;;;;;5012053;28;20289;-71
2023/08/26 08:22:41;;;;;;;5.40;2.30;;;23.30;1.00;;;;;;5011260;28;20698;-74
2023/08/26 08:25:08;;;;;;;4.80;2.37;;;23.30;1.00;;;;;;5010840;28;20301;-73
2023/08/26 08:27:35;;;;;;;7.90;2.20;;;23.20;1.00;;;;;;5010919;28;20449;-71
2023/08/26 08:30:00;;;;;;;4.30;2.20;;;23.10;1.00;;;;;;5010475;28;20807;-74
2023/08/26 08:32:26;;;;;;;4.30;2.30;;;24.80;1.00;;;;;;5011231;28;20433;-71
2023/08/26 08:34:52;;;;;;;3.70;2.10;;;23.10;1.00;;;;;;5011697;28;20296;-71
2023/08/26 08:37:18;;;;;;;4.80;2.50;;;23.10;1.00;;;;;;5011911;28;20224;-71
2023/08/26 08:39:44;;;;;;;7.03;2.50;;;23.20;1.00;;;;;;5011339;28;20744;-71
2023/08/26 08:42:13;;;;;;;4.20;2.30;;;23.70;1.00;;;;;;5011663;28;20523;-73
2023/08/26 08:44:41;;;;;;;4.67;2.40;;;24.20;1.00;;;;;;5010046;28;20338;-71
2023/08/26 08:47:07;;;;;;;4.67;2.17;;;24.40;1.00;;;;;;5011627;28;20490;-71
2023/08/26 08:49:34;;;;;;;9.00;2.63;;;24.20;1.00;;;;;;5011168;28;20435;-71
2023/08/26 08:52:04;;;;;;;4.00;2.10;;;23.90;1.00;;;;;;5011462;28;20433;-71
2023/08/26 08:54:30;;;;;;;4.00;2.00;;;23.80;1.00;;;;;;5016089;28;20440;-72
2023/08/26 08:56:56;;;;;;;5.53;2.20;;;24.00;1.00;;;;;;5010857;28;20461;-71
2023/08/26 08:59:24;;;;;;;5.23;2.27;;;24.00;1.00;;;;;;5010998;28;20350;-74
2023/08/26 09:01:52;;;;;;;4.80;3.00;;;24.10;1.00;;;;;;5005985;28;20996;-71
2023/08/26 09:04:19;;;;;;;6.30;3.13;;;24.30;1.00;;;;;;5015127;28;20481;-73
2023/08/26 09:06:44;;;;;;;3.63;2.20;;;24.30;1.00;;;;;;5010231;28;20819;-74
2023/08/26 09:09:11;;;;;;;5.03;2.07;;;24.30;1.00;;;;;;5010488;28;20182;-71
2023/08/26 09:11:39;;;;;;;3.57;2.10;;;24.20;1.00;;;;;;5010487;28;20585;-71
2023/08/26 09:14:08;;;;;;;3.77;2.00;;;24.20;1.00;;;;;;5007191;28;20432;-72
2023/08/26 09:16:38;;;;;;;4.03;1.90;;;24.30;1.00;;;;;;5008049;28;20487;-71
2023/08/26 09:19:12;;;;;;;4.83;2.30;;;22.80;1.00;;;;;;5009700;28;20495;-71
2023/08/26 09:21:44;;;;;;;5.00;2.30;;;23.90;1.00;;;;;;5007145;28;20811;-73
2023/08/26 09:24:13;;;;;;;3.87;1.70;;;23.70;1.00;;;;;;5010225;28;20461;-71
2023/08/26 09:26:38;;;;;;;5.13;2.10;;;23.80;1.00;;;;;;5010661;28;20448;-71
2023/08/26 09:29:11;;;;;;;3.90;2.00;;;23.60;1.00;;;;;;5010988;28;20451;-71
2023/08/26 09:31:47;;;;;;;4.97;2.00;;;23.30;1.00;;;;;;5010475;28;20660;-71
2023/08/26 09:34:23;;;;;;;4.13;1.80;;;23.10;1.00;;;;;;5011179;28;20486;-73
2023/08/26 09:36:49;;;;;;;3.43;1.80;;;23.10;1.00;;;;;;5009890;28;20452;-72
2023/08/26 09:39:16;;;;;;;5.43;2.10;;;23.00;1.00;;;;;;5010532;28;20463;-71
2023/08/26 09:41:45;;;;;;;3.80;1.90;;;23.10;1.00;;;;;;5010310;28;20186;-71
2023/08/26 09:44:12;;;;;;;4.27;2.03;;;23.40;1.00;;;;;;5010440;28;20472;-71
2023/08/26 09:46:39;;;;;;;4.10;1.70;;;23.60;1.00;;;;;;5010215;28;20602;-71
2023/08/26 09:49:05;;;;;;;5.73;2.03;;;23.80;1.00;;;;;;5010390;28;20939;-71
2023/08/26 09:51:32;;;;;;;4.60;1.90;;;23.90;1.00;;;;;;5010000;28;20707;-71
2023/08/26 09:53:59;;;;;;;3.20;1.90;;;23.90;1.00;;;;;;5009941;28;20420;-71
2023/08/26 09:56:26;;;;;;;8.80;2.03;;;23.90;1.00;;;;;;5010507;28;20436;-72
2023/08/26 09:58:53;;;;;;;5.90;2.23;;;24.00;1.00;;;;;;5007176;28;20447;-71
2023/08/26 10:01:20;;;;;;;6.63;2.40;;;24.10;1.00;;;;;;5000788;28;20729;-71
2023/08/26 10:04:04;;;;;;;3.60;1.70;;;24.30;1.00;;;;;;5009661;28;20532;-71
2023/08/26 10:06:33;;;;;;;3.33;1.67;;;24.30;1.00;;;;;;5008663;28;20463;-76
2023/08/26 10:09:06;;;;;;;7.80;2.10;;;24.30;1.00;;;;;;5010132;28;20780;-71
2023/08/26 10:11:36;;;;;;;4.53;1.83;;;24.40;1.00;;;;;;5009883;28;20791;-71
2023/08/26 10:14:04;;;;;;;4.30;1.60;;;24.50;1.00;;;;;;5009916;28;20436;-73
2023/08/26 10:16:30;;;;;;;4.90;1.60;;;24.50;1.00;;;;;;5010030;28;20457;-71
2023/08/26 10:18:58;;;;;;;3.83;1.57;;;24.60;1.00;;;;;;5002204;28;20934;-71
2023/08/26 10:21:24;;;;;;;3.50;1.77;;;24.70;1.00;;;;;;5010190;28;20436;-71
2023/08/26 10:23:50;;;;;;;4.57;1.90;;;24.70;1.00;;;;;;5009394;28;20479;-74
2023/08/26 10:26:19;;;;;;;3.80;1.80;;;24.80;1.00;;;;;;5009125;28;20722;-72
2023/08/26 10:28:47;;;;;;;3.53;1.80;;;25.20;1.00;;;;;;5008823;28;20584;-72
2023/08/26 10:31:14;;;;;;;3.50;1.70;;;25.40;1.00;;;;;;5009098;28;20432;-72
2023/08/26 10:34:07;;;;;;;3.37;1.80;;;25.50;1.00;;;;;;5008920;28;20428;-72
2023/08/26 10:36:40;;;;;;;4.40;1.80;;;25.30;1.00;;;;;;5008948;28;20799;-76
2023/08/26 10:39:17;;;;;;;3.73;1.77;;;25.20;1.00;;;;;;5001965;28;20421;-72
2023/08/26 10:42:16;;;;;;;4.27;1.80;;;24.90;1.00;;;;;;5008940;28;20417;-75
2023/08/26 10:44:46;;;;;;;3.60;1.80;;;24.80;1.00;;;;;;5008392;28;20543;-72
2023/08/26 10:47:12;;;;;;;3.33;1.67;;;24.80;1.00;;;;;;5009186;28;20440;-72
2023/08/26 10:49:37;;;;;;;2.90;1.70;;;24.80;1.00;;;;;;5010272;28;20478;-72
2023/08/26 10:52:16;;;;;;;6.80;1.80;;;24.50;1.00;;;;;;5012982;28;20231;-72
2023/08/26 10:54:46;;;;;;;4.00;1.87;;;24.30;1.00;;;;;;5012292;28;20660;-72
2023/08/26 10:57:12;;;;;;;5.10;2.03;;;24.20;1.00;;;;;;5013036;28;20455;-75
2023/08/26 10:59:40;;;;;;;3.90;1.70;;;24.20;1.00;;;;;;5012269;28;20420;-71
2023/08/26 11:02:11;;;;;;;3.07;1.90;;;24.20;1.00;;;;;;5013250;28;20652;-75
2023/08/26 11:04:44;;;;;;;6.43;2.10;;;24.00;1.00;;;;;;5012230;28;20878;-72
2023/08/26 11:07:19;;;;;;;3.07;2.00;;;24.00;1.00;;;;;;5013136;28;20862;-75
2023/08/26 11:09:45;;;;;;;8.30;1.83;;;24.00;1.00;;;;;;5012255;28;20431;-72
2023/08/26 11:12:28;;;;;;;3.40;1.93;;;24.10;1.00;;;;;;5008279;28;20421;-71
2023/08/26 11:15:02;;;;;;;4.33;2.10;;;24.20;1.00;;;;;;5011364;28;20216;-73
2023/08/26 11:17:28;;;;;;;6.00;2.20;;;24.20;1.00;;;;;;5012550;28;20799;-73
2023/08/26 11:19:54;;;;;;;3.73;1.80;;;24.10;1.00;;;;;;5012154;28;20475;-72
2023/08/26 11:22:25;;;;;;;3.87;2.03;;;23.90;1.00;;;;;;5011844;28;20959;-72
2023/08/26 11:24:50;;;;;;;4.17;2.27;;;24.00;1.00;;;;;;5011684;28;20539;-75
2023/08/26 11:27:16;;;;;;;4.30;2.00;;;24.00;1.00;;;;;;5012337;28;21028;-72
2023/08/26 11:29:42;;;;;;;3.50;1.80;;;24.10;1.00;;;;;;5011929;28;20615;-73
2023/08/26 11:32:08;;;;;;;3.37;1.80;;;24.00;1.00;;;;;;5012799;28;20182;-73
2023/08/26 11:34:34;;;;;;;3.83;2.00;;;24.00;1.00;;;;;;5011720;28;20435;-73
2023/08/26 11:36:59;;;;;;;4.63;2.20;;;23.90;1.00;;;;;;5012045;28;20208;-73
2023/08/26 11:39:35;;;;;;;4.03;2.10;;;23.60;1.00;;;;;;5011952;28;20193;-73
2023/08/26 11:42:13;;;;;;;3.73;2.03;;;23.50;1.00;;;;;;5010894;28;20178;-75
2023/08/26 11:44:39;;;;;;;3.63;1.83;;;23.40;1.00;;;;;;5006145;28;20790;-73
2023/08/26 11:47:07;;;;;;;5.00;2.20;;;23.10;1.00;;;;;;5012141;28;20548;-72
2023/08/26 11:49:32;;;;;;;4.90;2.20;;;23.30;1.00;;;;;;5011891;28;20182;-74
2023/08/26 11:51:59;;;;;;;4.67;2.30;;;23.50;1.00;;;;;;5010361;28;20757;-73
2023/08/26 11:54:25;;;;;;;7.87;1.87;;;23.70;1.00;;;;;;5007496;28;20621;-74
2023/08/26 11:56:51;;;;;;;3.20;1.83;;;23.90;1.00;;;;;;5011368;28;20463;-75
2023/08/26 11:59:21;;;;;;;4.17;2.30;;;23.90;1.00;;;;;;5011742;28;20194;-74
2023/08/26 12:01:46;;;;;;;5.47;2.20;;;23.90;1.00;;;;;;5007911;28;20637;-75
2023/08/26 12:04:16;;;;;;;4.70;2.27;;;24.00;1.00;;;;;;5008158;28;20495;-73
2023/08/26 12:06:42;;;;;;;3.83;2.00;;;23.90;1.00;;;;;;5009845;28;20724;-71
2023/08/26 12:09:08;;;;;;;3.00;1.73;;;23.90;1.00;;;;;;5011561;28;20456;-73
2023/08/26 12:11:37;;;;;;;3.40;2.00;;;23.70;1.00;;;;;;5009019;28;20472;-74
2023/08/26 12:14:18;;;;;;;3.57;2.00;;;23.30;1.00;;;;;;5012194;28;20190;-74
2023/08/26 12:16:45;;;;;;;3.00;1.97;;;22.90;1.00;;;;;;5007686;28;20496;-74
2023/08/26 12:19:17;;;;;;;4.00;2.00;;;22.60;1.00;;;;;;5007685;28;20440;-73
2023/08/26 12:21:47;;;;;;;3.00;1.80;;;22.50;1.00;;;;;;5007329;28;20451;-74
2023/08/26 12:24:12;;;;;;;5.27;2.30;;;22.30;1.00;;;;;;5008315;28;20556;-76
2023/08/26 12:26:38;;;;;;;9.80;2.53;;;22.40;1.00;;;;;;5009819;28;20606;-73
2023/08/26 12:29:04;;;;;;;3.60;1.90;;;25.60;1.00;;;;;;5007877;28;20675;-73
2023/08/26 12:31:34;;;;;;;3.57;2.20;;;22.30;1.00;;;;;;5007649;28;20528;-71
2023/08/26 12:34:00;;;;;;;5.40;2.40;;;22.10;1.00;;;;;;5008724;28;20184;-75
2023/08/26 12:36:25;;;;;;;4.37;2.67;;;21.90;1.00;;;;;;5009204;28;20491;-73
2023/08/26 12:38:51;;;;;;;5.90;2.37;;;22.00;1.00;;;;;;5008076;28;20822;-77
2023/08/26 12:41:16;;;;;;;4.83;2.97;;;22.00;1.00;;;;;;5007387;28;20178;-74
2023/08/26 12:43:42;;;;;;;3.97;2.30;;;22.10;1.00;;;;;;5007049;28;20182;-73
2023/08/26 12:46:07;;;;;;;3.57;2.40;;;22.20;1.00;;;;;;5006774;28;20293;-73
2023/08/26 12:48:33;;;;;;;7.20;2.70;;;22.20;1.00;;;;;;5007444;28;20189;-73
2023/08/26 12:50:59;;;;;;;4.23;2.43;;;22.20;1.00;;;;;;5007688;28;20703;-73